createdAt,value
2022-11-20T00:00:22.371Z,99387.96
2022-11-20T00:01:23.588Z,99387.2
2022-11-20T00:02:22.627Z,99381.28
2022-11-20T00:03:22.737Z,99386.62
2022-11-20T00:04:22.388Z,99387.7
2022-11-20T00:05:22.479Z,99383.76
2022-11-20T00:06:23.036Z,99382.25
2022-11-20T00:07:22.566Z,99379.61
2022-11-20T00:08:22.405Z,99382.52
2022-11-20T00:09:22.894Z,99380.09
2022-11-20T00:10:22.521Z,99377.83
2022-11-20T00:11:23.659Z,99380.09
2022-11-20T00:12:22.541Z,99380.14
2022-11-20T00:13:22.671Z,99373.79
2022-11-20T00:14:22.584Z,99380.47
2022-11-20T00:15:22.617Z,99382.52
2022-11-20T00:16:23.853Z,99380.95
2022-11-20T00:17:22.574Z,99388.72
2022-11-20T00:18:23.142Z,99381.69
2022-11-20T00:19:23.080Z,99379.07
2022-11-20T00:20:22.643Z,99374
2022-11-20T00:21:23.867Z,99377.5
2022-11-20T00:22:22.705Z,99370.64
2022-11-20T00:23:22.664Z,99368.77
2022-11-20T00:24:22.691Z,99370.5
2022-11-20T00:25:22.734Z,99370.07
2022-11-20T00:26:23.580Z,99373.19
2022-11-20T00:27:22.736Z,99374.7
2022-11-20T00:28:22.804Z,99372.55
2022-11-20T00:29:23.099Z,99375.03
2022-11-20T00:30:22.802Z,99370.12
2022-11-20T00:31:23.104Z,99368.88
2022-11-20T00:32:22.795Z,99375.78
2022-11-20T00:33:22.885Z,99372.02
2022-11-20T00:34:22.886Z,99367.36
2022-11-20T00:35:22.843Z,99371.78
2022-11-20T00:36:24.155Z,99367.79
2022-11-20T00:37:22.886Z,99367.09
2022-11-20T00:38:22.930Z,99361.88
2022-11-20T00:39:23.316Z,99361.77
2022-11-20T00:40:22.948Z,99364.58
2022-11-20T00:41:23.464Z,99358.57
2022-11-20T00:42:22.973Z,99362.63
2022-11-20T00:43:23.049Z,99360.3
2022-11-20T00:44:23.280Z,99355.39
2022-11-20T00:45:23.237Z,99356.17
2022-11-20T00:46:24.958Z,99355.5
2022-11-20T00:47:23.303Z,99355.18
2022-11-20T00:48:23.365Z,99355.28
2022-11-20T00:49:23.794Z,99357.55
2022-11-20T00:50:23.327Z,99359.87
2022-11-20T00:51:24.760Z,99360.57
2022-11-20T00:52:23.370Z,99352.65
2022-11-20T00:53:23.808Z,99357.23
2022-11-20T00:54:23.479Z,99356.91
2022-11-20T00:55:23.800Z,99354.75
2022-11-20T00:56:23.452Z,99354.91
2022-11-20T00:57:23.474Z,99353.23
2022-11-20T00:58:24.038Z,99353.5
2022-11-20T00:59:23.862Z,99349.58
2022-11-20T01:00:23.490Z,99348.98
2022-11-20T01:01:25.095Z,99349.8
2022-11-20T01:02:23.555Z,99352.05
2022-11-20T01:03:27.032Z,99352.54
2022-11-20T01:04:24.134Z,99351.67
2022-11-20T01:05:24.073Z,99353.19
2022-11-20T01:06:25.486Z,99348.66
2022-11-20T01:07:24.252Z,99353.24
2022-11-20T01:08:24.167Z,99351.3
2022-11-20T01:09:24.410Z,99352.34
2022-11-20T01:10:24.206Z,99358.47
2022-11-20T01:11:25.564Z,99355.88
2022-11-20T01:12:24.235Z,99350.49
2022-11-20T01:13:25.748Z,99350.66
2022-11-20T01:14:24.223Z,99347.75
2022-11-20T01:15:24.212Z,99346.18
2022-11-20T01:16:25.723Z,99338.86
2022-11-20T01:17:24.299Z,99339.66
2022-11-20T01:18:24.772Z,99339.5
2022-11-20T01:19:25.198Z,99341.06
2022-11-20T01:20:24.330Z,99338.91
2022-11-20T01:21:34.422Z,99341.49
2022-11-20T01:22:26.090Z,99341.59
2022-11-20T01:23:26.049Z,99339.88
2022-11-20T01:24:26.146Z,99344.03
2022-11-20T01:25:26.144Z,99343.22
2022-11-20T01:26:30.347Z,99342.25
2022-11-20T01:27:26.996Z,99340.04
2022-11-20T01:28:27.029Z,99339.83
2022-11-20T01:29:27.064Z,99342.14
2022-11-20T01:30:27.059Z,99340.9
2022-11-20T01:31:28.712Z,99335.94
2022-11-20T01:32:27.079Z,99338.36
2022-11-20T01:33:27.323Z,99340.15
2022-11-20T01:34:27.138Z,99343.16
2022-11-20T01:35:27.133Z,99340.2
2022-11-20T01:36:28.570Z,99339.72
2022-11-20T01:37:27.156Z,99335.62
2022-11-20T01:38:27.148Z,99333.09
2022-11-20T01:39:27.818Z,99332.17
2022-11-20T01:40:27.225Z,99335.89
2022-11-20T01:41:28.362Z,99333.3
2022-11-20T01:42:27.418Z,99331.31
2022-11-20T01:43:27.694Z,99334.44
2022-11-20T01:46:37.520Z,99331.36
2022-11-20T01:47:40.295Z,99335.14
2022-11-20T01:48:39.410Z,99334.55
2022-11-20T01:49:41.855Z,99330.83
2022-11-20T01:50:38.727Z,99335.57
2022-11-20T01:52:46.441Z,99335.19
2022-11-20T01:53:43.724Z,99330.72
2022-11-20T01:54:48.034Z,99330.98
2022-11-20T01:55:55.753Z,99327.97
2022-11-20T01:56:48.983Z,99327.76
2022-11-20T01:57:49.164Z,99328.78
2022-11-20T01:58:51.616Z,99329.8
2022-11-20T01:59:51.661Z,99328.61
2022-11-20T02:00:48.364Z,99329.21
2022-11-20T02:01:48.466Z,99327.65
2022-11-20T02:02:52.304Z,99326.95
2022-11-20T02:03:50.142Z,99326.2
2022-11-20T02:04:50.333Z,99324.14
2022-11-20T02:05:56.197Z,99323.12
2022-11-20T02:06:58.169Z,99322.75
2022-11-20T02:07:57.142Z,99320.59
2022-11-20T02:08:55.493Z,99320.64
2022-11-20T02:09:58.672Z,99316.55
2022-11-20T02:10:55.821Z,99318
2022-11-20T02:11:56.016Z,99319.84
2022-11-20T02:12:56.098Z,99318.59
2022-11-20T02:13:55.837Z,99316.38
2022-11-20T02:14:55.912Z,99314.12
2022-11-20T02:15:56.148Z,99321.39
2022-11-20T02:16:56.059Z,99314.88
2022-11-20T02:17:55.979Z,99316.72
2022-11-20T02:18:57.309Z,99318.75
2022-11-20T02:19:55.894Z,99320.11
2022-11-20T02:21:07.863Z,99318.76
2022-11-20T02:24:11.975Z,99321.83
2022-11-20T02:25:08.805Z,99321.02
2022-11-20T02:26:10.238Z,99320.86
2022-11-20T02:27:13.158Z,99322.53
2022-11-20T02:28:09.381Z,99324.8
2022-11-20T02:29:09.424Z,99322.05
2022-11-20T02:30:10.125Z,99321.83
2022-11-20T02:31:09.725Z,99318.28
2022-11-20T02:33:13.262Z,99318
2022-11-20T02:34:13.040Z,99316.02
2022-11-20T02:36:15.955Z,99314.39
2022-11-20T02:37:15.207Z,99310.89
2022-11-20T02:38:15.541Z,99313.91
2022-11-20T02:39:16.121Z,99310.04
2022-11-20T02:40:15.409Z,99306.86
2022-11-20T02:41:15.001Z,99308.31
2022-11-20T02:42:15.029Z,99311.87
2022-11-20T02:43:16.459Z,99309.93
2022-11-20T02:44:15.081Z,99308.8
2022-11-20T02:45:15.064Z,99308.31
2022-11-20T02:46:15.330Z,99310.14
2022-11-20T02:47:15.093Z,99308.37
2022-11-20T02:48:15.074Z,99309.39
2022-11-20T02:49:15.080Z,99309.61
2022-11-20T02:50:15.446Z,99310.95
2022-11-20T02:51:15.135Z,99311.06
2022-11-20T02:52:15.114Z,99308.85
2022-11-20T02:53:15.181Z,99307.3
2022-11-20T02:54:15.138Z,99306.91
2022-11-20T02:55:15.185Z,99304.33
2022-11-20T02:56:15.275Z,99303.8
2022-11-20T02:57:15.200Z,99308.31
2022-11-20T02:58:15.212Z,99308.91
2022-11-20T02:59:15.220Z,99306
2022-11-20T03:00:15.576Z,99310.25
2022-11-20T03:01:15.318Z,99304.66
2022-11-20T03:02:15.259Z,99308.09
2022-11-20T03:03:15.274Z,99306.97
2022-11-20T03:04:15.351Z,99307.72
2022-11-20T03:05:15.301Z,99305.62
2022-11-20T03:06:16.191Z,99306.59
2022-11-20T03:07:15.393Z,99307.67
2022-11-20T03:08:15.336Z,99309.93
2022-11-20T03:09:15.357Z,99309.72
2022-11-20T03:10:15.399Z,99304.59
2022-11-20T03:11:15.432Z,99307.61
2022-11-20T03:12:16.282Z,99307.83
2022-11-20T03:13:15.379Z,99307.34
2022-11-20T03:14:15.459Z,99310.36
2022-11-20T03:15:15.577Z,99307.12
2022-11-20T03:16:16.618Z,99311.55
2022-11-20T03:17:16.758Z,99308.84
2022-11-20T03:18:15.452Z,99312.14
2022-11-20T03:19:15.561Z,99310.73
2022-11-20T03:20:15.586Z,99307.88
2022-11-20T03:21:16.089Z,99311.55
2022-11-20T03:22:15.493Z,99314.34
2022-11-20T03:23:15.537Z,99307.67
2022-11-20T03:24:15.669Z,99306
2022-11-20T03:25:15.661Z,99306.7
2022-11-20T03:26:17.153Z,99308.26
2022-11-20T03:27:15.590Z,99303.41
2022-11-20T03:28:15.589Z,99302.7
2022-11-20T03:29:15.715Z,99302.39
2022-11-20T03:30:15.627Z,99301.8
2022-11-20T03:31:16.208Z,99306.69
2022-11-20T03:32:15.645Z,99307.76
2022-11-20T03:33:15.657Z,99306.09
2022-11-20T03:34:15.665Z,99303.41
2022-11-20T03:35:15.667Z,99305.02
2022-11-20T03:36:16.569Z,99304.8
2022-11-20T03:37:15.697Z,99304.27
2022-11-20T03:38:15.715Z,99299.3
2022-11-20T03:39:15.826Z,99302.97
2022-11-20T03:40:15.754Z,99302.95
2022-11-20T03:41:20.401Z,99299.98
2022-11-20T03:42:16.621Z,99296.28
2022-11-20T03:43:16.646Z,99299.02
2022-11-20T03:44:16.757Z,99300.16
2022-11-20T03:45:17.486Z,99302.31
2022-11-20T03:46:17.051Z,99304.84
2022-11-20T03:47:16.712Z,99303.12
2022-11-20T03:48:16.684Z,99302.58
2022-11-20T03:49:16.725Z,99303.28
2022-11-20T03:50:16.901Z,99303.22
2022-11-20T03:51:23.844Z,99302.52
2022-11-20T03:52:20.103Z,99304.3
2022-11-20T03:53:20.583Z,99301.93
2022-11-20T03:54:20.092Z,99304.57
2022-11-20T03:55:20.117Z,99305.38
2022-11-20T03:56:22.831Z,99306.61
2022-11-20T03:57:20.137Z,99307.36
2022-11-20T03:58:20.149Z,99304.5
2022-11-20T03:59:20.570Z,99301.97
2022-11-20T04:00:20.153Z,99297.89
2022-11-20T04:01:21.480Z,99302.95
2022-11-20T04:02:20.238Z,99301.53
2022-11-20T04:03:20.243Z,99303.37
2022-11-20T04:04:20.413Z,99304.57
2022-11-20T04:05:20.224Z,99305.91
2022-11-20T04:06:21.811Z,99303.38
2022-11-20T04:07:20.283Z,99302.83
2022-11-20T04:08:20.282Z,99305.53
2022-11-20T04:09:20.473Z,99302.46
2022-11-20T04:10:20.380Z,99299.5
2022-11-20T04:11:21.915Z,99302.69
2022-11-20T04:12:20.326Z,99302.36
2022-11-20T04:13:20.329Z,99304.18
2022-11-20T04:14:20.362Z,99302.45
2022-11-20T04:15:20.419Z,99301.81
2022-11-20T04:16:21.050Z,99305.96
2022-11-20T04:17:20.360Z,99301.7
2022-11-20T04:18:20.383Z,99302.41
2022-11-20T04:19:20.953Z,99298.74
2022-11-20T04:20:20.465Z,99301.88
2022-11-20T04:21:20.537Z,99299.55
2022-11-20T04:22:20.425Z,99306.41
2022-11-20T04:23:24.497Z,99303.06
2022-11-20T04:24:23.734Z,99301.28
2022-11-20T04:25:23.789Z,99303.06
2022-11-20T04:26:24.887Z,99303.82
2022-11-20T04:27:23.769Z,99312.88
2022-11-20T04:28:23.801Z,99312.88
2022-11-20T04:29:23.990Z,99308.83
2022-11-20T04:30:23.830Z,99310.07
2022-11-20T04:31:25.385Z,99310.02
2022-11-20T04:32:23.850Z,99316.49
2022-11-20T04:33:23.854Z,99323.5
2022-11-20T04:34:23.863Z,99320.32
2022-11-20T04:35:23.903Z,99317.84
2022-11-20T04:36:25.061Z,99316.28
2022-11-20T04:37:23.905Z,99323.28
2022-11-20T04:38:23.929Z,99312.49
2022-11-20T04:39:24.246Z,99317.93
2022-11-20T04:40:23.953Z,99316.86
2022-11-20T04:41:25.245Z,99319.52
2022-11-20T04:42:23.968Z,99320.79
2022-11-20T04:43:23.976Z,99321.92
2022-11-20T04:44:23.958Z,99327.86
2022-11-20T04:45:24.218Z,99326.62
2022-11-20T04:46:24.000Z,99327.59
2022-11-20T04:47:24.404Z,99328.19
2022-11-20T04:48:24.448Z,99330.67
2022-11-20T04:49:24.431Z,99328.23
2022-11-20T04:50:24.056Z,99330.02
2022-11-20T04:51:24.572Z,99321.5
2022-11-20T04:52:24.079Z,99324.62
2022-11-20T04:53:24.560Z,99327.27
2022-11-20T04:54:24.109Z,99321.34
2022-11-20T04:55:24.118Z,99320.41
2022-11-20T04:56:24.519Z,99326.52
2022-11-20T04:57:24.207Z,99327
2022-11-20T04:58:24.180Z,99327.59
2022-11-20T04:59:24.544Z,99322.69
2022-11-20T05:00:24.179Z,99323.49
2022-11-20T05:01:25.198Z,99324.73
2022-11-20T05:02:24.232Z,99322.15
2022-11-20T05:03:24.263Z,99327.22
2022-11-20T05:04:24.263Z,99326.57
2022-11-20T05:05:24.300Z,99321.83
2022-11-20T05:06:24.273Z,99319.89
2022-11-20T05:07:24.325Z,99320.05
2022-11-20T05:08:24.265Z,99322.8
2022-11-20T05:09:24.432Z,99324.08
2022-11-20T05:10:25.170Z,99323.92
2022-11-20T05:11:24.994Z,99326.39
2022-11-20T05:12:24.366Z,99323.77
2022-11-20T05:13:24.865Z,99320.2
2022-11-20T05:14:25.025Z,99323.12
2022-11-20T05:15:24.914Z,99320.38
2022-11-20T05:16:25.226Z,99319.55
2022-11-20T05:17:24.946Z,99316.27
2022-11-20T05:18:24.917Z,99318.1
2022-11-20T05:19:25.004Z,99321.61
2022-11-20T05:20:24.974Z,99322.36
2022-11-20T05:21:24.969Z,99324.69
2022-11-20T05:22:24.990Z,99331.91
2022-11-20T05:23:25.268Z,99332.88
2022-11-20T05:24:25.001Z,99333.2
2022-11-20T05:25:25.192Z,99331.3
2022-11-20T05:26:25.018Z,99331.53
2022-11-20T05:27:25.044Z,99333.69
2022-11-20T05:28:25.596Z,99337.12
2022-11-20T05:29:25.058Z,99337.94
2022-11-20T05:30:25.379Z,99336.97
2022-11-20T05:31:28.126Z,99332.77
2022-11-20T05:32:25.095Z,99335.12
2022-11-20T05:33:25.111Z,99336.44
2022-11-20T05:34:25.105Z,99336.71
2022-11-20T05:35:25.130Z,99338.05
2022-11-20T05:36:25.260Z,99338.85
2022-11-20T05:37:25.191Z,99336.86
2022-11-20T05:38:25.190Z,99335.14
2022-11-20T05:39:25.184Z,99337.73
2022-11-20T05:40:25.184Z,99338.69
2022-11-20T05:41:25.560Z,99340.36
2022-11-20T05:42:25.287Z,99340.53
2022-11-20T05:43:25.228Z,99337.36
2022-11-20T05:44:25.242Z,99339.02
2022-11-20T05:45:25.267Z,99338.48
2022-11-20T05:46:28.784Z,99343.61
2022-11-20T05:47:26.910Z,99341.34
2022-11-20T05:48:25.960Z,99343.61
2022-11-20T05:49:25.775Z,99336.82
2022-11-20T05:50:25.846Z,99341.23
2022-11-20T05:51:26.189Z,99342.97
2022-11-20T05:52:28.647Z,99341.51
2022-11-20T05:53:27.705Z,99346.3
2022-11-20T05:54:25.821Z,99351.74
2022-11-20T05:55:25.981Z,99351.56
2022-11-20T05:56:25.839Z,99357.62
2022-11-20T05:57:25.875Z,99360.84
2022-11-20T05:58:25.884Z,99361.45
2022-11-20T05:59:25.910Z,99359.05
2022-11-20T06:00:25.883Z,99361.1
2022-11-20T06:01:26.406Z,99355.23
2022-11-20T06:02:25.931Z,99361.27
2022-11-20T06:03:25.940Z,99365.03
2022-11-20T06:04:26.055Z,99359.05
2022-11-20T06:05:25.950Z,99361.2
2022-11-20T06:06:25.961Z,99363.73
2022-11-20T06:07:26.003Z,99360.8
2022-11-20T06:08:26.041Z,99363.38
2022-11-20T06:09:26.024Z,99363.76
2022-11-20T06:10:26.031Z,99363.27
2022-11-20T06:11:26.430Z,99368.88
2022-11-20T06:12:26.046Z,99370.98
2022-11-20T06:13:26.134Z,99372.05
2022-11-20T06:14:26.073Z,99377.34
2022-11-20T06:15:26.129Z,99377.55
2022-11-20T06:16:27.133Z,99378.34
2022-11-20T06:17:26.115Z,99382.19
2022-11-20T06:18:27.326Z,99385.02
2022-11-20T06:19:26.291Z,99387.2
2022-11-20T06:20:26.152Z,99386.85
2022-11-20T06:21:26.271Z,99388.55
2022-11-20T06:22:26.148Z,99385.04
2022-11-20T06:23:26.174Z,99383.27
2022-11-20T06:24:26.253Z,99385.74
2022-11-20T06:25:26.176Z,99384.48
2022-11-20T06:26:27.127Z,99386.09
2022-11-20T06:27:26.216Z,99389.98
2022-11-20T06:28:26.239Z,99392.3
2022-11-20T06:29:30.089Z,99396.81
2022-11-20T06:30:30.004Z,99394.98
2022-11-20T06:31:30.036Z,99391.97
2022-11-20T06:32:30.060Z,99389.56
2022-11-20T06:33:30.053Z,99396.22
2022-11-20T06:34:30.119Z,99393.12
2022-11-20T06:35:30.089Z,99392.16
2022-11-20T06:36:30.089Z,99388.55
2022-11-20T06:37:30.091Z,99391.51
2022-11-20T06:38:30.119Z,99389.94
2022-11-20T06:39:30.160Z,99393.17
2022-11-20T06:40:30.193Z,99394.67
2022-11-20T06:41:30.139Z,99394.84
2022-11-20T06:42:30.139Z,99398.33
2022-11-20T06:43:30.201Z,99401.83
2022-11-20T06:44:30.213Z,99408.19
2022-11-20T06:45:30.218Z,99404.36
2022-11-20T06:46:30.207Z,99410.98
2022-11-20T06:47:30.335Z,99410.66
2022-11-20T06:48:30.555Z,99411.42
2022-11-20T06:49:30.244Z,99413.41
2022-11-20T06:50:30.625Z,99421.86
2022-11-20T06:51:30.256Z,99421.44
2022-11-20T06:52:30.303Z,99422.89
2022-11-20T06:53:30.301Z,99420.84
2022-11-20T06:54:30.511Z,99422.4
2022-11-20T06:55:30.613Z,99420.9
2022-11-20T06:56:30.356Z,99425.47
2022-11-20T06:57:30.380Z,99430.31
2022-11-20T06:58:31.659Z,99426.62
2022-11-20T06:59:30.362Z,99427.72
2022-11-20T07:00:30.546Z,99434.95
2022-11-20T07:01:30.436Z,99437.09
2022-11-20T07:02:30.446Z,99435.05
2022-11-20T07:03:30.428Z,99437.41
2022-11-20T07:04:30.456Z,99440.54
2022-11-20T07:05:30.471Z,99439.63
2022-11-20T07:06:30.536Z,99444.15
2022-11-20T07:07:30.509Z,99439.95
2022-11-20T07:08:30.711Z,99442.96
2022-11-20T07:09:30.512Z,99444.33
2022-11-20T07:10:30.516Z,99446.95
2022-11-20T07:11:30.752Z,99446.8
2022-11-20T07:12:30.555Z,99444.57
2022-11-20T07:13:30.621Z,99455.85
2022-11-20T07:14:30.582Z,99452.48
2022-11-20T07:15:30.947Z,99457.36
2022-11-20T07:16:30.608Z,99464.09
2022-11-20T07:17:30.674Z,99457.89
2022-11-20T07:18:30.742Z,99465.92
2022-11-20T07:19:30.796Z,99468.66
2022-11-20T07:20:30.885Z,99472.53
2022-11-20T07:21:30.658Z,99470.75
2022-11-20T07:22:30.697Z,99470.66
2022-11-20T07:23:30.664Z,99475.59
2022-11-20T07:24:30.704Z,99475.34
2022-11-20T07:25:30.695Z,99478.72
2022-11-20T07:26:30.718Z,99482.07
2022-11-20T07:27:31.102Z,99481.91
2022-11-20T07:28:30.744Z,99480.91
2022-11-20T07:29:30.798Z,99483.72
2022-11-20T07:30:30.807Z,99485.3
2022-11-20T07:31:30.781Z,99482.43
2022-11-20T07:32:30.974Z,99486.11
2022-11-20T07:33:31.154Z,99481.05
2022-11-20T07:34:30.838Z,99484.05
2022-11-20T07:35:30.865Z,99481.3
2022-11-20T07:36:30.866Z,99486.24
2022-11-20T07:37:30.881Z,99481.45
2022-11-20T07:38:31.254Z,99484.8
2022-11-20T07:39:30.946Z,99484.56
2022-11-20T07:40:30.948Z,99489.25
2022-11-20T07:41:30.943Z,99484.34
2022-11-20T07:42:30.968Z,99488.77
2022-11-20T07:43:31.168Z,99487.16
2022-11-20T07:44:30.964Z,99488.67
2022-11-20T07:45:30.978Z,99488.23
2022-11-20T07:46:31.013Z,99490.91
2022-11-20T07:47:35.770Z,99483.89
2022-11-20T07:48:32.028Z,99487.39
2022-11-20T07:49:32.020Z,99490.91
2022-11-20T07:50:32.011Z,99489.03
2022-11-20T07:51:32.006Z,99483.86
2022-11-20T07:52:32.239Z,99487.12
2022-11-20T07:53:32.079Z,99484
2022-11-20T07:54:32.061Z,99480.83
2022-11-20T07:55:32.552Z,99487.3
2022-11-20T07:56:32.103Z,99482.92
2022-11-20T07:57:32.163Z,99480.2
2022-11-20T07:58:32.685Z,99492.52
2022-11-20T07:59:32.169Z,99485.3
2022-11-20T08:00:32.248Z,99481.41
2022-11-20T08:01:32.218Z,99484.45
2022-11-20T08:02:32.202Z,99487.77
2022-11-20T08:03:32.229Z,99489.92
2022-11-20T08:04:32.239Z,99483.58
2022-11-20T08:05:32.256Z,99483.84
2022-11-20T08:06:32.288Z,99492.06
2022-11-20T08:08:34.544Z,99492.95
2022-11-20T08:09:33.669Z,99492.89
2022-11-20T08:10:33.736Z,99495.2
2022-11-20T08:11:33.719Z,99495.8
2022-11-20T08:12:33.807Z,99501.2
2022-11-20T08:13:33.732Z,99497.45
2022-11-20T08:14:33.779Z,99498.67
2022-11-20T08:15:34.116Z,99497.64
2022-11-20T08:16:33.775Z,99495.45
2022-11-20T08:17:33.792Z,99499.12
2022-11-20T08:18:33.839Z,99498.44
2022-11-20T08:19:34.084Z,99501
2022-11-20T08:20:33.881Z,99496.61
2022-11-20T08:21:38.165Z,99496.95
2022-11-20T08:22:34.863Z,99503.91
2022-11-20T08:23:34.880Z,99504.73
2022-11-20T08:24:34.935Z,99504.06
2022-11-20T08:25:36.024Z,99507.78
2022-11-20T08:26:35.382Z,99503.48
2022-11-20T08:27:37.756Z,99512.12
2022-11-20T08:28:35.135Z,99512.81
2022-11-20T08:29:35.160Z,99510.27
2022-11-20T08:30:35.754Z,99515.77
2022-11-20T08:31:35.333Z,99513.16
2022-11-20T08:32:35.196Z,99513.26
2022-11-20T08:33:35.192Z,99513.84
2022-11-20T08:34:35.233Z,99514.66
2022-11-20T08:35:35.989Z,99512.27
2022-11-20T08:36:35.268Z,99513.11
2022-11-20T08:37:35.266Z,99515.17
2022-11-20T08:38:35.262Z,99512.58
2022-11-20T08:39:35.306Z,99515.06
2022-11-20T08:40:35.320Z,99515.34
2022-11-20T08:41:35.291Z,99516.19
2022-11-20T08:42:35.329Z,99514.81
2022-11-20T08:43:35.355Z,99511.91
2022-11-20T08:44:35.399Z,99515.56
2022-11-20T08:45:35.782Z,99519.52
2022-11-20T08:46:37.093Z,99519.99
2022-11-20T08:47:35.410Z,99519.35
2022-11-20T08:48:35.588Z,99519.88
2022-11-20T08:49:35.443Z,99523.45
2022-11-20T08:50:35.486Z,99519.14
2022-11-20T08:51:35.573Z,99516.72
2022-11-20T08:52:39.711Z,99522.34
2022-11-20T08:53:36.311Z,99520.01
2022-11-20T08:54:36.243Z,99517.43
2022-11-20T08:55:36.353Z,99518.86
2022-11-20T08:56:36.694Z,99520.12
2022-11-20T08:57:36.768Z,99520.86
2022-11-20T08:59:02.063Z,99525.66
2022-11-20T09:00:04.268Z,99523.97
2022-11-20T09:00:39.000Z,99524.64
2022-11-20T09:01:38.940Z,99524.56
2022-11-20T09:02:38.943Z,99527.53
2022-11-20T09:03:38.959Z,99527.17
2022-11-20T09:04:38.978Z,99525.28
2022-11-20T09:05:39.018Z,99524.39
2022-11-20T09:06:38.990Z,99523.17
2022-11-20T09:07:39.115Z,99521.69
2022-11-20T09:08:39.384Z,99521.73
2022-11-20T09:09:39.041Z,99523.38
2022-11-20T09:10:39.092Z,99521.14
2022-11-20T09:11:39.118Z,99525.05
2022-11-20T09:12:39.096Z,99529.45
2022-11-20T09:13:39.134Z,99522.58
2022-11-20T09:14:39.143Z,99528.2
2022-11-20T09:15:39.172Z,99531.02
2022-11-20T09:16:39.145Z,99529.72
2022-11-20T09:17:39.156Z,99538.75
2022-11-20T09:18:39.447Z,99531.48
2022-11-20T09:19:39.261Z,99539.92
2022-11-20T09:20:39.453Z,99536.66
2022-11-20T09:21:39.230Z,99538.98
2022-11-20T09:22:40.610Z,99536.34
2022-11-20T09:23:39.499Z,99538.33
2022-11-20T09:24:39.284Z,99538.33
2022-11-20T09:25:39.286Z,99539.1
2022-11-20T09:26:39.374Z,99538.48
2022-11-20T09:27:39.312Z,99543.91
2022-11-20T09:28:39.578Z,99540.75
2022-11-20T09:29:39.364Z,99541.34
2022-11-20T09:30:39.370Z,99540.55
2022-11-20T09:31:39.392Z,99540.03
2022-11-20T09:32:39.803Z,99542.2
2022-11-20T09:33:39.453Z,99547.5
2022-11-20T09:34:39.441Z,99542.39
2022-11-20T09:35:39.569Z,99548.19
2022-11-20T09:36:39.473Z,99542.73
2022-11-20T09:37:39.482Z,99538.44
2022-11-20T09:38:39.544Z,99541.93
2022-11-20T09:39:39.524Z,99540.64
2022-11-20T09:42:48.852Z,99544.97
2022-11-20T09:43:58.969Z,99550.91
2022-11-20T09:44:58.097Z,99551.35
2022-11-20T09:47:03.664Z,99551.47
2022-11-20T09:50:11.515Z,99552.03
2022-11-20T09:51:15.926Z,99551.69
2022-11-20T09:52:16.843Z,99558.31
2022-11-20T09:55:12.780Z,99561.66
2022-11-20T09:56:11.873Z,99561.41
2022-11-20T10:00:17.313Z,99561.73
2022-11-20T10:01:17.997Z,99561.13
2022-11-20T10:02:20.696Z,99569.18
2022-11-20T10:03:20.415Z,99574.45
2022-11-20T10:04:19.103Z,99573.5
2022-11-20T10:06:25.078Z,99576.76
2022-11-20T10:08:29.577Z,99579.61
2022-11-20T10:09:31.921Z,99582.01
2022-11-20T10:13:52.696Z,99582.44
2022-11-20T10:22:05.480Z,99595.73
2022-11-20T10:30:11.813Z,99579.41
2022-11-20T10:31:12.111Z,99577.98
2022-11-20T10:36:28.832Z,99570.97
2022-11-20T10:37:28.560Z,99576.72
2022-11-20T10:39:32.126Z,99576.47
2022-11-20T10:40:32.034Z,99578.28
2022-11-20T10:41:33.121Z,99576.69
2022-11-20T10:42:36.291Z,99581.84
2022-11-20T10:43:35.836Z,99579.02
2022-11-20T10:44:32.766Z,99583.62
2022-11-20T10:46:43.537Z,99581.87
2022-11-20T10:47:40.225Z,99582.4
2022-11-20T10:48:43.346Z,99582.65
2022-11-20T10:49:42.201Z,99578.09
2022-11-20T10:50:46.270Z,99585.49
2022-11-20T10:51:51.963Z,99583.97
2022-11-20T10:57:01.950Z,99585.55
2022-11-20T11:02:19.086Z,99582.84
2022-11-20T11:03:21.204Z,99588.66
2022-11-20T11:05:20.927Z,99588.1
2022-11-20T11:08:27.189Z,99591.56
2022-11-20T11:09:36.488Z,99594.13
2022-11-20T11:10:39.515Z,99594.76
2022-11-20T11:11:33.364Z,99596.17
2022-11-20T11:12:31.248Z,99598.64
2022-11-20T11:13:31.286Z,99596.55
2022-11-20T11:14:42.143Z,99598.88
2022-11-20T11:15:40.845Z,99600.63
2022-11-20T11:16:49.486Z,99601.67
2022-11-20T11:17:47.563Z,99600.41
2022-11-20T11:18:44.317Z,99600.22
2022-11-20T11:19:44.250Z,99599.02
2022-11-20T11:20:50.446Z,99600.81
2022-11-20T11:21:55.868Z,99597.2
2022-11-20T11:22:52.694Z,99599.69
2022-11-20T11:24:13.449Z,99597.69
2022-11-20T11:24:52.716Z,99599.23
2022-11-20T11:25:57.942Z,99599.02
2022-11-20T11:27:53.675Z,99606.86
2022-11-20T11:29:00.239Z,99606.25
2022-11-20T11:30:58.570Z,99609.45
2022-11-20T11:32:08.628Z,99606.62
2022-11-20T11:33:07.604Z,99610.34
2022-11-20T11:34:05.149Z,99609.14
2022-11-20T11:35:05.779Z,99615.23
2022-11-20T11:36:05.177Z,99622.14
2022-11-20T11:37:05.061Z,99616.84
2022-11-20T11:38:11.947Z,99622.94
2022-11-20T11:39:18.405Z,99619.97
2022-11-20T11:40:27.304Z,99622.89
2022-11-20T11:41:19.702Z,99619.9
2022-11-20T11:42:19.852Z,99624.55
2022-11-20T11:43:21.813Z,99629.41
2022-11-20T11:45:19.878Z,99630.92
2022-11-20T11:47:31.036Z,99626.91
2022-11-20T11:48:27.687Z,99628.91
2022-11-20T11:49:27.292Z,99624.71
2022-11-20T11:50:28.518Z,99628.05
2022-11-20T11:51:32.511Z,99627.45
2022-11-20T11:52:30.012Z,99627.18
2022-11-20T11:53:29.760Z,99632.59
2022-11-20T11:56:33.971Z,99628.7
2022-11-20T12:00:50.429Z,99640.19
2022-11-20T12:01:53.039Z,99643.25
2022-11-20T12:02:58.515Z,99637.55
2022-11-20T12:03:56.501Z,99640.67
2022-11-20T12:05:00.364Z,99642.07
2022-11-20T12:06:02.618Z,99648.55
2022-11-20T12:07:18.359Z,99645.07
2022-11-20T12:08:12.115Z,99645.61
2022-11-20T12:09:05.181Z,99644.98
2022-11-20T12:10:04.321Z,99646.47
2022-11-20T12:12:16.286Z,99652.48
2022-11-20T12:15:27.585Z,99656.78
2022-11-20T12:16:24.414Z,99652.9
2022-11-20T12:17:24.700Z,99662.02
2022-11-20T12:18:24.282Z,99663.33
2022-11-20T12:19:25.007Z,99666.33
2022-11-20T12:20:26.964Z,99670.01
2022-11-20T12:21:32.735Z,99670.04
2022-11-20T12:22:35.272Z,99670.44
2022-11-20T12:25:31.406Z,99668.7
2022-11-20T12:36:09.715Z,99657.7
2022-11-20T12:45:34.462Z,99660.28
2022-11-20T12:46:30.849Z,99662.66
2022-11-20T12:49:35.677Z,99663.66
2022-11-20T12:52:46.418Z,99663.44
2022-11-20T12:55:53.203Z,99662.02
2022-11-20T12:57:04.366Z,99656.77
2022-11-20T12:57:54.891Z,99656.62
2022-11-20T12:59:02.785Z,99659.66
2022-11-20T13:02:10.477Z,99660.33
2022-11-20T13:04:10.680Z,99657.05
2022-11-20T13:05:19.598Z,99655.08
2022-11-20T13:06:19.957Z,99656.44
2022-11-20T13:07:13.890Z,99658.11
2022-11-20T13:08:23.396Z,99653.7
2022-11-20T13:09:17.880Z,99654.72
2022-11-20T13:10:19.630Z,99653.02
2022-11-20T13:11:24.546Z,99657.18
2022-11-20T13:12:26.241Z,99656.3
2022-11-20T13:14:41.362Z,99654.92
2022-11-20T13:15:37.577Z,99654.77
2022-11-20T13:16:37.827Z,99657.36
2022-11-20T13:17:34.551Z,99659.94
2022-11-20T13:18:34.880Z,99657.62
2022-11-20T13:19:31.915Z,99659.97
2022-11-20T13:20:33.845Z,99655.98
2022-11-20T13:21:41.626Z,99653.51
2022-11-20T13:22:46.859Z,99651.6
2022-11-20T13:23:33.554Z,99655.19
2022-11-20T13:24:33.584Z,99652.94
2022-11-20T13:25:34.778Z,99657.18
2022-11-20T13:26:33.767Z,99653.05
2022-11-20T13:27:33.604Z,99655.77
2022-11-20T13:28:33.683Z,99657.07
2022-11-20T13:29:34.493Z,99656.52
2022-11-20T13:30:33.987Z,99658.81